Time;durP1;ratioP1;P1;durP2;ratioP2;P2;SDS_P1;SDS_P2;PMS_P1;PMS_P2;Temp;Humidity;BMP_temperature;BMP_pressure;BME280_temperature;BME280_humidity;BME280_pressure;Samples;Min_cycle;Max_cycle;Signal;HPM_P1;HPM_P2
2022/07/10 00:01:40;;;;;;;7.77;6.97;;;;;;;20.03;85.36;98772.53;4118642;28;20637;-86
2022/07/10 00:03:44;;;;;;;6.60;6.00;;;;;;;20.03;85.21;98785.78;4112084;28;20640;-86
2022/07/10 00:05:49;;;;;;;7.30;5.93;;;;;;;19.95;83.96;98775.03;4110182;28;20666;-85
2022/07/10 00:07:53;;;;;;;6.37;5.77;;;;;;;19.89;85.85;98772.97;4127204;28;20660;-86
2022/07/10 00:09:56;;;;;;;7.10;6.40;;;;;;;19.83;85.40;98776.19;4129061;28;21078;-85
2022/07/10 00:11:59;;;;;;;7.10;6.40;;;;;;;19.79;84.95;98771.34;4126894;28;20677;-84
2022/07/10 00:14:06;;;;;;;7.03;6.33;;;;;;;19.73;85.39;98771.91;4128618;28;20682;-86
2022/07/10 00:16:09;;;;;;;7.40;6.80;;;;;;;19.67;85.25;98770.66;4128056;28;20667;-86
2022/07/10 00:18:12;;;;;;;7.43;6.73;;;;;;;19.65;86.62;98770.00;4110515;28;20699;-85
2022/07/10 00:20:16;;;;;;;6.97;6.37;;;;;;;19.66;85.22;98773.47;4127831;28;20634;-85
2022/07/10 00:22:19;;;;;;;7.77;7.07;;;;;;;19.65;86.59;98777.06;4128744;28;21310;-85
2022/07/10 00:24:22;;;;;;;7.00;6.40;;;;;;;19.65;85.53;98772.63;4129692;28;20620;-86
2022/07/10 00:26:25;;;;;;;7.40;6.70;;;;;;;19.68;86.30;98768.84;4111214;28;20645;-85
2022/07/10 00:28:29;;;;;;;8.10;6.23;;;;;;;19.68;86.13;98772.34;4112227;28;21351;-86
2022/07/10 00:30:33;;;;;;;7.33;6.63;;;;;;;19.67;86.37;98768.03;4110924;28;20640;-86
2022/07/10 00:32:37;;;;;;;8.27;6.17;;;;;;;19.62;86.29;98767.63;4124883;28;21242;-86
2022/07/10 00:34:40;;;;;;;6.23;5.63;;;;;;;19.60;85.59;98769.56;4128564;28;20620;-86
2022/07/10 00:36:43;;;;;;;7.90;6.27;;;;;;;19.56;86.16;98767.34;4128069;28;21252;-85
2022/07/10 00:38:46;;;;;;;7.30;6.60;;;;;;;19.48;87.01;98761.94;4129147;28;20642;-86
2022/07/10 00:40:49;;;;;;;7.20;6.60;;;;;;;19.40;86.96;98764.47;4127872;28;21181;-85
2022/07/10 00:42:52;;;;;;;7.77;6.47;;;;;;;19.35;86.34;98776.44;4114986;28;21202;-86
2022/07/10 00:44:55;;;;;;;9.50;6.30;;;;;;;19.32;86.91;98776.72;4127432;28;20644;-85
2022/07/10 00:47:00;;;;;;;7.30;6.60;;;;;;;19.28;86.46;98772.72;4096587;28;21039;-85
2022/07/10 00:49:03;;;;;;;6.90;6.20;;;;;;;19.24;86.56;98771.31;4112172;28;20654;-85
2022/07/10 00:51:06;;;;;;;7.30;6.57;;;;;;;19.20;87.22;98770.78;4130730;28;21022;-85
2022/07/10 00:53:09;;;;;;;7.63;6.93;;;;;;;19.15;87.17;98758.94;4113612;28;20658;-85
2022/07/10 00:55:14;;;;;;;8.70;7.83;;;;;;;19.11;87.36;98758.41;4111509;28;20645;-85
2022/07/10 00:57:18;;;;;;;8.73;7.80;;;;;;;19.13;87.59;98760.91;4110100;28;20671;-86
2022/07/10 00:59:23;;;;;;;7.23;6.63;;;;;;;19.11;87.82;98758.41;4112555;28;20718;-85
2022/07/10 01:01:26;;;;;;;7.80;7.00;;;;;;;19.10;88.22;98750.59;4128481;28;20642;-86
2022/07/10 01:03:30;;;;;;;7.63;6.70;;;;;;;19.09;87.56;98756.88;4130311;28;20747;-85
2022/07/10 01:05:33;;;;;;;8.10;7.07;;;;;;;19.04;88.38;98751.16;4112918;28;20632;-85
2022/07/10 01:07:37;;;;;;;7.47;6.70;;;;;;;19.02;87.23;98753.13;4130899;28;21223;-86
2022/07/10 01:09:40;;;;;;;7.30;6.70;;;;;;;18.96;88.11;98756.31;4125488;28;20656;-85
2022/07/10 01:11:43;;;;;;;7.13;6.43;;;;;;;18.94;88.24;98750.28;4125857;28;21239;-85
2022/07/10 01:13:46;;;;;;;8.67;6.70;;;;;;;18.93;88.22;98754.75;4110222;28;20644;-85
2022/07/10 01:15:49;;;;;;;10.53;7.53;;;;;;;18.88;88.52;98743.78;4126671;28;20692;-85
2022/07/10 01:17:53;;;;;;;11.40;7.43;;;;;;;18.83;87.37;98745.16;4128502;28;20688;-85
2022/07/10 01:19:57;;;;;;;7.43;6.73;;;;;;;18.76;87.70;98743.22;4128029;28;20670;-85
2022/07/10 01:22:02;;;;;;;8.03;7.20;;;;;;;18.72;88.31;98740.03;4113712;28;20646;-85
2022/07/10 01:24:07;;;;;;;7.43;6.37;;;;;;;18.69;88.03;98739.47;4113889;28;20693;-85
2022/07/10 01:26:10;;;;;;;7.13;6.43;;;;;;;18.63;88.39;98737.38;4129384;28;20635;-85
2022/07/10 01:28:13;;;;;;;7.60;6.90;;;;;;;18.60;88.18;98748.22;4112735;28;20678;-86
2022/07/10 01:30:16;;;;;;;7.00;6.40;;;;;;;18.58;88.90;98747.50;4110717;28;20637;-85
2022/07/10 01:32:19;;;;;;;7.23;6.60;;;;;;;18.54;87.95;98751.41;4109477;28;20638;-85
2022/07/10 01:34:22;;;;;;;7.80;6.77;;;;;;;18.49;88.62;98743.91;4131720;28;20660;-86
2022/07/10 01:36:25;;;;;;;8.53;7.13;;;;;;;18.45;88.68;98742.50;4128329;28;20653;-85
2022/07/10 01:38:30;;;;;;;7.70;6.47;;;;;;;18.42;88.36;98742.78;4113341;28;21250;-86
2022/07/10 01:40:33;;;;;;;7.50;6.80;;;;;;;18.38;89.09;98739.72;4127231;28;21011;-85
2022/07/10 01:42:37;;;;;;;7.90;7.10;;;;;;;18.36;89.02;98741.63;4110741;28;20677;-85
2022/07/10 01:44:40;;;;;;;8.33;7.60;;;;;;;18.35;89.72;98742.63;4129206;28;20661;-85
2022/07/10 01:46:45;;;;;;;7.73;7.00;;;;;;;18.34;89.03;98743.59;4109575;28;20630;-85
2022/07/10 01:48:49;;;;;;;7.67;6.97;;;;;;;18.33;89.82;98741.91;4114509;28;20648;-86
2022/07/10 01:50:52;;;;;;;7.50;6.80;;;;;;;18.33;90.07;98742.75;4129089;28;20637;-85
2022/07/10 01:52:55;;;;;;;7.73;7.03;;;;;;;18.32;90.33;98748.19;4131692;28;21032;-85
2022/07/10 01:54:59;;;;;;;7.60;7.00;;;;;;;18.33;90.19;98749.84;4113149;28;20643;-85
2022/07/10 01:57:03;;;;;;;7.57;6.87;;;;;;;18.31;90.26;98755.28;4127109;28;20665;-85
2022/07/10 01:59:06;;;;;;;6.97;6.30;;;;;;;18.28;90.36;98755.56;4114433;28;20639;-84
2022/07/10 02:01:10;;;;;;;8.80;7.33;;;;;;;18.25;90.08;98754.97;4117320;28;20630;-85
2022/07/10 02:05:35;;;;;;;8.17;6.57;;;;;;;18.18;89.99;98749.41;4112051;28;20666;-85
2022/07/10 02:07:38;;;;;;;8.40;7.70;;;;;;;18.20;90.15;98762.47;4116457;28;20641;-85
2022/07/10 02:09:42;;;;;;;9.30;7.07;;;;;;;18.19;90.99;98756.38;4116050;28;20662;-85
2022/07/10 02:11:46;;;;;;;7.63;6.70;;;;;;;18.18;90.76;98754.69;4114899;28;20655;-85
2022/07/10 02:13:50;;;;;;;7.07;6.40;;;;;;;18.19;91.06;98752.88;4116763;28;20638;-85
2022/07/10 02:15:53;;;;;;;8.00;7.20;;;;;;;18.20;90.93;98757.19;4130736;28;20640;-85
2022/07/10 02:17:56;;;;;;;7.93;7.23;;;;;;;18.18;90.69;98754.69;4114317;28;20691;-85
2022/07/10 02:20:00;;;;;;;7.47;6.87;;;;;;;18.19;90.41;98761.66;4109443;28;20618;-85
2022/07/10 02:22:04;;;;;;;7.77;7.07;;;;;;;18.16;90.27;98755.78;4113453;28;20646;-85
2022/07/10 02:24:07;;;;;;;8.70;8.00;;;;;;;18.14;90.09;98760.38;4110301;28;20688;-85
2022/07/10 02:26:10;;;;;;;7.70;6.90;;;;;;;18.06;90.08;98755.72;4129016;28;20648;-85
2022/07/10 02:28:14;;;;;;;9.90;7.73;;;;;;;18.01;89.28;98755.31;4125448;28;20653;-85
2022/07/10 02:30:17;;;;;;;7.30;6.60;;;;;;;17.92;90.58;98753.47;4123322;28;20653;-85
2022/07/10 02:32:21;;;;;;;7.67;6.97;;;;;;;17.91;90.82;98750.97;4126437;28;20643;-85
2022/07/10 02:34:25;;;;;;;8.37;7.40;;;;;;;17.91;91.27;98750.97;4112419;28;20664;-85
2022/07/10 02:36:29;;;;;;;7.83;7.03;;;;;;;17.89;91.12;98755.53;4126344;28;21119;-85
2022/07/10 02:38:32;;;;;;;7.87;7.07;;;;;;;17.85;90.78;98756.75;4125541;28;20652;-85
2022/07/10 02:40:35;;;;;;;7.97;7.27;;;;;;;17.84;91.57;98751.63;4108401;28;20668;-86
2022/07/10 02:42:38;;;;;;;8.13;7.43;;;;;;;17.84;90.95;98764.81;4111350;28;20758;-85
2022/07/10 02:44:43;;;;;;;8.00;7.20;;;;;;;17.83;91.21;98757.84;4128281;28;20641;-85
2022/07/10 02:46:46;;;;;;;8.07;7.27;;;;;;;17.80;91.18;98756.34;4129582;28;20672;-85
2022/07/10 02:48:50;;;;;;;7.70;6.90;;;;;;;17.76;90.58;98762.84;4124297;28;20631;-85
2022/07/10 02:50:53;;;;;;;7.40;6.80;;;;;;;17.74;91.23;98761.28;4124861;28;20876;-85
2022/07/10 02:52:56;;;;;;;7.63;6.93;;;;;;;17.73;90.53;98763.09;4126535;28;20644;-85
2022/07/10 02:54:59;;;;;;;7.23;6.63;;;;;;;17.68;90.18;98767.94;4113681;28;20634;-85
2022/07/10 02:57:02;;;;;;;8.00;7.30;;;;;;;17.65;91.19;98765.56;4129912;28;20671;-84
2022/07/10 02:59:06;;;;;;;7.83;7.13;;;;;;;17.61;90.46;98772.06;4112009;28;21159;-85
2022/07/10 03:01:10;;;;;;;8.27;7.40;;;;;;;17.62;90.58;98772.91;4124125;28;21083;-84
2022/07/10 03:03:13;;;;;;;7.37;6.67;;;;;;;17.58;90.39;98771.50;4114120;28;21190;-85
2022/07/10 03:05:17;;;;;;;7.40;6.73;;;;;;;17.53;90.62;98776.34;4109985;28;20643;-85
2022/07/10 03:07:20;;;;;;;8.00;7.20;;;;;;;17.49;89.81;98773.13;4110190;28;20648;-84
2022/07/10 03:09:23;;;;;;;7.50;6.90;;;;;;;17.49;89.88;98767.84;4110097;28;21228;-84
2022/07/10 03:11:26;;;;;;;7.60;6.97;;;;;;;17.45;89.85;98768.22;4114043;28;20688;-85
2022/07/10 03:13:29;;;;;;;7.27;6.30;;;;;;;17.41;89.98;98764.19;4109600;28;20629;-85
2022/07/10 03:15:33;;;;;;;7.53;6.87;;;;;;;17.37;90.30;98760.13;4110876;28;20641;-85
2022/07/10 03:17:37;;;;;;;7.77;7.07;;;;;;;17.36;91.43;98768.19;4110058;28;21195;-85
2022/07/10 03:19:40;;;;;;;9.33;7.40;;;;;;;17.36;91.35;98771.66;4110546;28;21000;-85
2022/07/10 03:21:44;;;;;;;8.10;7.30;;;;;;;17.37;92.11;98769.88;4104720;28;21000;-85
2022/07/10 03:23:47;;;;;;;7.70;7.00;;;;;;;17.39;90.96;98765.28;4111037;28;20994;-85
2022/07/10 03:25:50;;;;;;;8.50;7.70;;;;;;;17.43;92.24;98756.16;4124340;28;21248;-85
2022/07/10 03:27:57;;;;;;;8.33;7.60;;;;;;;17.46;91.91;98762.81;4124384;28;20995;-85
2022/07/10 03:30:00;;;;;;;8.60;7.70;;;;;;;17.52;92.02;98767.56;4110124;28;20653;-85
2022/07/10 03:32:04;;;;;;;8.17;7.43;;;;;;;17.53;92.51;98763.97;4107488;28;21022;-85
2022/07/10 03:34:09;;;;;;;10.63;8.33;;;;;;;17.57;92.80;98768.00;4123832;28;20648;-85
2022/07/10 03:36:13;;;;;;;9.63;7.60;;;;;;;17.61;92.03;98768.59;4108560;28;20628;-85
2022/07/10 03:38:16;;;;;;;8.57;7.80;;;;;;;17.63;91.98;98767.50;4109271;28;21012;-85
2022/07/10 03:40:20;;;;;;;8.60;7.43;;;;;;;17.64;92.44;98774.44;4110327;28;20640;-84
2022/07/10 03:42:23;;;;;;;8.77;7.87;;;;;;;17.67;92.10;98776.00;4107948;28;20684;-85
2022/07/10 03:44:26;;;;;;;8.20;7.10;;;;;;;17.70;92.00;98773.09;4110146;28;20704;-85
2022/07/10 03:46:29;;;;;;;8.40;7.70;;;;;;;17.69;92.74;98772.25;4127474;28;20638;-85
2022/07/10 03:48:33;;;;;;;7.27;6.67;;;;;;;17.67;91.92;98774.19;4108424;28;20638;-85
2022/07/10 03:50:37;;;;;;;8.67;7.77;;;;;;;17.66;90.57;98772.50;4092744;28;20671;-85
2022/07/10 03:52:41;;;;;;;7.97;7.27;;;;;;;17.68;90.99;98777.66;4108938;28;20641;-85
2022/07/10 03:54:44;;;;;;;7.53;6.83;;;;;;;17.64;89.75;98773.63;4124848;28;20628;-85
2022/07/10 03:59:08;;;;;;;7.97;7.27;;;;;;;17.53;89.30;98769.25;4091920;29;21012;-85
2022/07/10 04:01:11;;;;;;;9.70;7.43;;;;;;;17.50;89.62;98772.16;4093797;28;20665;-85
2022/07/10 04:03:14;;;;;;;7.47;6.77;;;;;;;17.48;89.09;98762.69;4123696;28;20684;-85
2022/07/10 04:05:17;;;;;;;8.10;7.40;;;;;;;17.46;89.73;98762.81;4125864;28;21051;-85
2022/07/10 04:07:21;;;;;;;8.00;7.20;;;;;;;17.46;90.20;98766.44;4108290;28;20717;-86
2022/07/10 04:09:24;;;;;;;9.13;7.70;;;;;;;17.45;91.03;98767.41;4127243;28;20728;-84
2022/07/10 04:11:27;;;;;;;8.27;7.03;;;;;;;17.47;90.10;98761.88;4124995;28;20678;-85
2022/07/10 04:13:30;;;;;;;8.90;8.00;;;;;;;17.50;90.46;98766.06;4122270;28;21001;-85
2022/07/10 04:15:34;;;;;;;9.43;8.50;;;;;;;17.53;90.21;98768.44;4107476;28;20640;-85
2022/07/10 04:17:37;;;;;;;9.20;8.40;;;;;;;17.55;90.43;98767.31;4108614;28;20625;-84
2022/07/10 04:19:40;;;;;;;8.90;7.60;;;;;;;17.61;91.01;98768.59;4108623;28;20643;-86
2022/07/10 04:21:43;;;;;;;7.90;7.20;;;;;;;17.65;90.88;98775.28;4123797;28;20645;-85
2022/07/10 04:23:47;;;;;;;8.47;7.40;;;;;;;17.67;91.24;98783.91;4108574;28;20687;-85
2022/07/10 04:25:50;;;;;;;7.50;6.70;;;;;;;17.70;90.18;98783.66;4126271;28;20663;-85
2022/07/10 04:27:53;;;;;;;6.87;6.17;;;;;;;17.74;90.31;98785.03;4111187;28;21284;-85
2022/07/10 04:29:56;;;;;;;6.43;5.83;;;;;;;17.78;90.99;98789.94;4124866;28;20638;-85
2022/07/10 04:31:59;;;;;;;8.23;5.87;;;;;;;17.79;89.98;98788.16;4108817;28;20716;-85
2022/07/10 04:34:02;;;;;;;8.70;5.90;;;;;;;17.83;89.31;98787.75;4105860;28;21241;-86
2022/07/10 04:36:06;;;;;;;6.97;6.10;;;;;;;17.88;89.48;98785.53;4110054;28;21071;-85
2022/07/10 04:38:09;;;;;;;10.93;5.80;;;;;;;17.92;88.90;98795.69;4124099;28;20731;-85
2022/07/10 04:40:14;;;;;;;6.20;5.60;;;;;;;17.92;88.43;98794.88;4124322;28;20632;-85
2022/07/10 04:42:17;;;;;;;7.47;5.77;;;;;;;17.88;87.89;98788.19;4125978;28;20645;-85
2022/07/10 04:44:20;;;;;;;5.63;5.07;;;;;;;17.88;88.39;98792.63;4112521;28;20688;-85
2022/07/10 04:46:23;;;;;;;6.30;5.70;;;;;;;17.89;87.75;98795.13;4112829;28;20696;-85
2022/07/10 04:48:27;;;;;;;8.47;5.67;;;;;;;17.95;87.57;98791.94;4112132;28;20645;-85
2022/07/10 04:50:30;;;;;;;6.37;5.77;;;;;;;18.02;87.61;98793.09;4126787;28;20679;-85
2022/07/10 04:52:33;;;;;;;6.93;5.13;;;;;;;18.10;87.66;98788.81;4128125;28;20649;-86
2022/07/10 04:54:36;;;;;;;6.60;5.50;;;;;;;18.17;87.31;98786.50;4113539;28;21639;-86
2022/07/10 04:56:41;;;;;;;7.23;5.63;;;;;;;18.26;86.94;98788.34;4109687;28;20704;-85
2022/07/10 04:58:44;;;;;;;6.10;5.50;;;;;;;18.25;85.77;98784.03;4131129;28;20699;-85
2022/07/10 05:00:54;;;;;;;6.40;5.23;;;;;;;18.28;85.60;98781.09;4112975;28;20713;-85
2022/07/10 05:02:57;;;;;;;5.43;4.90;;;;;;;18.33;85.36;98778.88;4111866;28;20704;-85
2022/07/10 05:05:00;;;;;;;6.10;5.20;;;;;;;18.37;84.77;98786.41;4124456;28;20633;-85
2022/07/10 05:07:04;;;;;;;6.70;4.90;;;;;;;18.39;85.18;98792.41;4129577;28;20699;-84
2022/07/10 05:09:07;;;;;;;5.47;4.90;;;;;;;18.42;84.16;98794.78;4129158;28;21229;-85
2022/07/10 05:11:10;;;;;;;7.07;5.83;;;;;;;18.46;84.61;98797.03;4114719;28;20656;-85
2022/07/10 05:13:15;;;;;;;6.23;5.63;;;;;;;18.57;84.70;98794.25;4111934;28;20659;-85
2022/07/10 05:15:18;;;;;;;5.90;5.30;;;;;;;18.64;83.30;98803.31;4126217;28;20632;-85
2022/07/10 05:17:21;;;;;;;7.10;5.20;;;;;;;18.59;83.20;98810.78;4111304;28;20636;-85
2022/07/10 05:19:24;;;;;;;8.03;5.80;;;;;;;18.52;83.11;98801.75;4128360;28;20651;-85
2022/07/10 05:21:27;;;;;;;6.17;5.00;;;;;;;18.57;83.88;98804.00;4108468;28;21231;-86
2022/07/10 05:23:30;;;;;;;8.40;5.43;;;;;;;18.53;83.76;98800.78;4124403;28;20633;-85
2022/07/10 05:25:33;;;;;;;8.60;5.50;;;;;;;18.50;84.07;98793.13;4124298;28;20655;-85
2022/07/10 05:27:36;;;;;;;5.90;5.10;;;;;;;18.53;83.31;98799.94;4108695;28;20642;-85
2022/07/10 05:29:41;;;;;;;5.57;5.00;;;;;;;18.53;83.28;98800.78;4113364;28;20663;-85
2022/07/10 05:31:44;;;;;;;8.40;5.07;;;;;;;18.55;84.07;98808.56;4126844;28;20670;-85
2022/07/10 05:33:48;;;;;;;6.60;5.27;;;;;;;18.54;83.96;98807.75;4107366;28;20637;-85
2022/07/10 05:35:51;;;;;;;9.20;5.30;;;;;;;18.52;84.75;98809.69;4125009;28;20643;-85
2022/07/10 05:37:54;;;;;;;7.07;5.13;;;;;;;18.53;85.40;98813.97;4114491;28;20661;-85
2022/07/10 05:39:57;;;;;;;6.13;5.53;;;;;;;18.54;85.57;98813.03;4127181;28;20650;-85
2022/07/10 05:42:00;;;;;;;7.53;5.90;;;;;;;18.53;85.36;98813.97;4112063;28;21276;-85
2022/07/10 05:44:04;;;;;;;6.50;5.90;;;;;;;18.52;84.77;98824.69;4112213;28;20655;-86
2022/07/10 05:46:31;;;;;;;8.00;6.13;;;;;;;18.48;85.17;98826.78;4124397;28;20739;-86
2022/07/10 05:48:34;;;;;;;7.53;6.00;;;;;;;18.58;85.01;98832.94;4125312;28;20640;-85
2022/07/10 05:50:38;;;;;;;5.83;5.20;;;;;;;18.63;84.35;98841.28;4127206;28;20691;-86
2022/07/10 05:52:41;;;;;;;6.00;4.93;;;;;;;18.64;81.79;98827.09;4127310;28;20645;-85
2022/07/10 05:54:44;;;;;;;5.80;4.53;;;;;;;18.77;82.07;98829.47;4112950;28;20625;-85
2022/07/10 05:56:47;;;;;;;4.90;4.40;;;;;;;18.74;79.89;98827.94;4110896;28;20641;-86
2022/07/10 05:58:50;;;;;;;5.90;4.80;;;;;;;18.65;79.68;98828.75;4109965;28;20666;-85
2022/07/10 06:00:54;;;;;;;6.50;4.47;;;;;;;18.59;80.06;98829.28;4112463;28;21071;-84
2022/07/10 06:03:18;;;;;;;5.50;4.00;;;;;;;18.60;80.43;98828.34;4105458;28;21315;-85
2022/07/10 06:05:21;;;;;;;7.00;4.17;;;;;;;18.65;80.43;98839.31;4110788;28;20634;-85
2022/07/10 06:07:24;;;;;;;5.57;4.10;;;;;;;18.61;79.22;98837.94;4112763;28;21235;-85
2022/07/10 06:09:28;;;;;;;6.03;4.70;;;;;;;18.53;79.10;98839.59;4127610;28;20632;-85
2022/07/10 06:11:31;;;;;;;7.00;4.87;;;;;;;18.49;78.95;98833.75;4112673;28;20665;-85
2022/07/10 06:13:34;;;;;;;4.37;3.63;;;;;;;18.39;78.36;98839.97;4112973;28;21221;-85
2022/07/10 06:15:37;;;;;;;5.10;4.00;;;;;;;18.33;78.60;98829.09;4127625;28;21414;-86
2022/07/10 06:17:40;;;;;;;4.70;3.70;;;;;;;18.30;79.13;98835.50;4123836;28;20636;-85
2022/07/10 06:19:48;;;;;;;4.00;3.60;;;;;;;18.33;78.19;98835.22;4125377;28;20638;-85
2022/07/10 06:22:30;;;;;;;4.93;3.57;;;;;;;18.33;78.55;98843.16;4112870;28;20728;-86
2022/07/10 06:24:14;;;;;;;4.80;3.77;;;;;;;18.37;78.53;98838.41;4127143;28;20647;-85
2022/07/10 06:26:17;;;;;;;5.13;4.13;;;;;;;18.75;77.79;98836.69;4114379;28;21210;-85
2022/07/10 06:28:20;;;;;;;4.03;3.60;;;;;;;19.20;76.52;98844.00;4127729;28;20631;-85
2022/07/10 06:30:24;;;;;;;7.93;4.40;;;;;;;19.44;76.65;98851.38;4125749;28;20645;-86
2022/07/10 06:32:27;;;;;;;4.70;3.00;;;;;;;19.53;74.85;98855.84;4110667;28;20660;-85
2022/07/10 06:34:30;;;;;;;6.83;3.30;;;;;;;19.56;73.48;98855.56;4126759;28;21216;-85
2022/07/10 06:36:35;;;;;;;4.70;2.77;;;;;;;19.44;74.45;98856.69;4111228;28;20641;-84
2022/07/10 06:38:38;;;;;;;4.33;2.90;;;;;;;19.46;73.81;98854.72;4111375;28;20700;-85
2022/07/10 06:40:42;;;;;;;4.43;2.50;;;;;;;19.42;72.75;98848.06;4124282;28;20646;-85
2022/07/10 06:42:46;;;;;;;4.97;2.87;;;;;;;19.49;74.28;98856.25;4096260;29;21181;-86
2022/07/10 06:44:49;;;;;;;4.30;2.70;;;;;;;19.60;74.40;98850.81;4107405;28;20652;-85
2022/07/10 06:49:11;;;;;;;5.43;2.93;;;;;;;19.42;70.05;98857.78;4126577;28;21299;-85
2022/07/10 06:51:14;;;;;;;3.20;2.30;;;;;;;19.27;69.04;98858.34;4110746;28;21229;-85
2022/07/10 06:53:26;;;;;;;6.83;2.60;;;;;;;19.15;69.32;98856.81;4125435;28;20658;-85
2022/07/10 06:55:30;;;;;;;3.97;2.67;;;;;;;18.98;69.67;98857.47;4106672;28;20638;-85
2022/07/10 06:57:33;;;;;;;3.80;2.37;;;;;;;19.04;71.03;98868.38;4110239;28;20638;-85
2022/07/10 06:59:36;;;;;;;4.20;2.37;;;;;;;19.11;68.95;98864.19;4109890;28;20647;-85
2022/07/10 07:01:39;;;;;;;3.40;2.37;;;;;;;19.19;69.34;98861.69;4126258;28;20654;-85
2022/07/10 07:03:43;;;;;;;4.30;2.40;;;;;;;19.32;68.44;98867.56;4111695;28;20726;-85
2022/07/10 07:05:46;;;;;;;4.73;2.53;;;;;;;19.27;68.87;98867.13;4128702;28;20668;-85
2022/07/10 07:07:49;;;;;;;3.60;2.60;;;;;;;19.11;67.41;98871.28;4129799;28;20641;-86
2022/07/10 07:09:54;;;;;;;3.93;2.60;;;;;;;18.88;68.40;98862.75;4112427;28;20636;-87
2022/07/10 07:12:12;;;;;;;3.53;2.80;;;;;;;18.79;68.77;98856.59;4094190;28;20685;-85
2022/07/10 07:14:16;;;;;;;3.87;2.63;;;;;;;18.75;69.71;98853.41;4092860;28;20650;-86
2022/07/10 07:16:20;;;;;;;4.53;2.70;;;;;;;18.79;70.36;98857.44;4127402;28;20651;-85
2022/07/10 07:18:31;;;;;;;3.57;2.60;;;;;;;18.66;69.47;98856.88;4109827;28;20727;-85
2022/07/10 07:23:09;;;;;;;4.77;2.93;;;;;;;18.64;69.67;98861.47;4110011;28;21290;-85
2022/07/10 07:25:14;;;;;;;3.03;2.13;;;;;;;18.62;70.38;98852.81;4113322;28;20693;-86
2022/07/10 07:27:17;;;;;;;5.80;2.77;;;;;;;18.52;70.28;98862.53;4111241;28;20637;-85
2022/07/10 07:29:20;;;;;;;3.13;2.60;;;;;;;18.51;71.07;98852.94;4093766;28;20656;-85
2022/07/10 07:31:23;;;;;;;5.57;2.80;;;;;;;18.60;70.92;98851.28;4107630;28;20625;-85
2022/07/10 07:33:26;;;;;;;5.73;2.80;;;;;;;18.68;71.16;98860.19;4107641;28;20747;-85
2022/07/10 07:35:29;;;;;;;6.10;2.90;;;;;;;18.69;70.68;98856.59;4122457;28;20663;-85
2022/07/10 07:37:38;;;;;;;3.90;2.83;;;;;;;18.62;71.12;98862.56;4112832;28;20729;-85
2022/07/10 07:39:41;;;;;;;7.33;4.93;;;;;;;18.66;71.34;98866.63;4122550;28;21247;-85
2022/07/10 07:41:46;;;;;;;3.33;2.60;;;;;;;18.67;70.65;98868.25;4114480;28;20970;-85
2022/07/10 07:43:49;;;;;;;3.83;2.57;;;;;;;18.65;69.28;98865.75;4109851;28;20635;-86
2022/07/10 07:45:52;;;;;;;5.10;2.63;;;;;;;18.61;70.68;98867.03;4125780;28;20629;-88
2022/07/10 07:47:56;;;;;;;4.47;2.47;;;;;;;18.74;70.73;98866.75;4109760;28;21235;-85
2022/07/10 07:50:02;;;;;;;6.33;2.30;;;;;;;18.85;69.96;98866.63;4109873;28;20640;-85
2022/07/10 07:52:06;;;;;;;3.70;2.47;;;;;;;18.92;70.14;98872.06;4108034;28;23015;-86
2022/07/10 07:54:10;;;;;;;5.37;2.90;;;;;;;19.02;70.61;98872.97;4111654;28;20736;-86
2022/07/10 07:56:13;;;;;;;6.27;3.00;;;;;;;19.23;70.00;98886.03;4109323;28;20720;-85
2022/07/10 07:58:18;;;;;;;3.30;2.70;;;;;;;19.24;69.07;98882.44;4107994;28;20641;-85
2022/07/10 08:00:23;;;;;;;4.50;2.40;;;;;;;19.51;70.08;98884.22;4112920;28;21214;-86
2022/07/10 08:02:26;;;;;;;5.57;2.37;;;;;;;19.60;68.40;98883.38;4112108;28;20636;-86
2022/07/10 08:04:29;;;;;;;3.20;2.20;;;;;;;19.68;69.41;98882.69;4109553;28;20649;-85
2022/07/10 08:06:33;;;;;;;2.80;2.30;;;;;;;19.66;67.35;98882.81;4113571;28;20678;-86
2022/07/10 08:08:36;;;;;;;4.30;2.23;;;;;;;19.63;67.63;98883.09;4124806;28;21226;-85
2022/07/10 08:10:40;;;;;;;4.80;2.53;;;;;;;19.52;67.32;98880.63;4125184;28;20644;-86
2022/07/10 08:12:47;;;;;;;2.97;2.07;;;;;;;19.55;67.61;98877.69;4121937;28;20679;-85
2022/07/10 08:14:54;;;;;;;3.60;2.47;;;;;;;19.67;66.68;98875.75;4125362;28;20633;-85
2022/07/10 08:16:58;;;;;;;5.63;2.30;;;;;;;19.75;67.16;98878.50;4110945;28;20674;-86
2022/07/10 08:19:01;;;;;;;5.87;4.40;;;;;;;20.09;68.75;98886.69;4114179;28;21204;-85
2022/07/10 08:21:04;;;;;;;3.17;2.63;;;;;;;20.19;65.80;98886.66;4128813;28;20978;-86
2022/07/10 08:23:08;;;;;;;5.13;2.43;;;;;;;20.08;65.53;98886.81;4111601;28;20682;-86
2022/07/10 08:25:11;;;;;;;3.40;2.20;;;;;;;20.04;68.06;98883.63;4100768;28;20642;-86
2022/07/10 08:27:15;;;;;;;3.10;2.50;;;;;;;20.10;68.57;98879.56;4130209;28;20654;-87
2022/07/10 08:29:19;;;;;;;3.13;2.20;;;;;;;20.15;69.48;98882.63;4114747;28;21278;-86
2022/07/10 08:31:24;;;;;;;4.03;2.57;;;;;;;20.20;67.35;98869.78;4114096;28;21155;-86
2022/07/10 08:33:27;;;;;;;3.50;2.53;;;;;;;20.32;68.39;98868.63;4124614;28;20656;-86
2022/07/10 08:35:31;;;;;;;3.10;2.10;;;;;;;20.65;67.92;98869.69;4129517;28;21392;-86
2022/07/10 08:37:38;;;;;;;4.67;2.30;;;;;;;20.71;62.86;98866.50;4129470;28;20646;-86
2022/07/10 08:39:41;;;;;;;4.33;2.20;;;;;;;20.88;64.33;98865.69;4113144;28;21300;-85
2022/07/10 08:41:46;;;;;;;7.77;2.03;;;;;;;21.17;64.78;98863.66;4126826;28;21244;-86
2022/07/10 08:43:50;;;;;;;5.50;2.10;;;;;;;21.14;64.36;98866.59;4129115;28;20639;-86
2022/07/10 08:45:54;;;;;;;3.90;2.03;;;;;;;20.91;60.62;98868.88;4111152;28;20638;-86
2022/07/10 08:48:01;;;;;;;10.20;2.33;;;;;;;20.87;61.57;98864.84;4116324;28;20707;-86
2022/07/10 08:50:05;;;;;;;3.60;1.97;;;;;;;21.19;63.24;98867.84;4121751;28;20648;-86
2022/07/10 08:52:26;;;;;;;4.67;2.10;;;;;;;21.43;63.42;98868.88;4113663;28;20646;-86
2022/07/10 08:54:30;;;;;;;3.10;2.17;;;;;;;21.45;62.35;98863.44;4113620;28;20667;-86
2022/07/10 08:56:34;;;;;;;2.73;2.10;;;;;;;21.47;63.50;98862.34;4128719;28;20665;-86
2022/07/10 08:58:37;;;;;;;2.90;1.90;;;;;;;21.20;62.90;98866.88;4130733;28;21065;-86
2022/07/10 09:00:41;;;;;;;3.20;1.90;;;;;;;21.20;63.11;98863.34;4115864;28;20608;-86
2022/07/10 09:02:44;;;;;;;2.30;1.80;;;;;;;21.24;61.37;98864.72;4110156;28;20644;-86
2022/07/10 09:04:49;;;;;;;3.50;2.37;;;;;;;21.36;61.97;98854.56;4116447;28;21197;-86
2022/07/10 09:06:53;;;;;;;4.73;2.67;;;;;;;21.53;63.96;98867.03;4113598;28;20672;-84
2022/07/10 09:09:04;;;;;;;5.07;2.03;;;;;;;21.77;61.70;98861.91;4127933;28;20728;-85
2022/07/10 09:11:14;;;;;;;3.90;2.30;;;;;;;22.18;62.82;98863.84;4095703;29;20719;-85
2022/07/10 09:13:18;;;;;;;3.27;2.27;;;;;;;22.36;60.71;98873.44;4128195;28;20633;-85
2022/07/10 09:15:23;;;;;;;3.63;1.97;;;;;;;22.23;60.05;98865.03;4127159;28;20623;-85
2022/07/10 09:17:26;;;;;;;5.10;2.00;;;;;;;22.26;57.98;98854.91;4128307;28;20643;-85
2022/07/10 09:19:29;;;;;;;3.10;1.97;;;;;;;22.44;60.24;98858.34;4131294;28;20630;-84
2022/07/10 09:21:34;;;;;;;3.90;1.80;;;;;;;22.37;58.58;98854.66;4111062;28;20640;-85
2022/07/10 09:23:37;;;;;;;3.37;2.30;;;;;;;22.38;59.22;98864.28;4112571;28;20683;-84
2022/07/10 09:25:41;;;;;;;5.03;2.33;;;;;;;22.49;59.63;98860.53;4109485;28;20678;-85
2022/07/10 09:27:53;;;;;;;3.40;2.47;;;;;;;22.24;59.44;98867.53;4106753;28;21219;-86
2022/07/10 09:29:57;;;;;;;4.03;2.10;;;;;;;22.15;60.49;98864.16;4111100;28;21257;-85
2022/07/10 09:32:02;;;;;;;6.50;2.20;;;;;;;22.33;60.77;98869.25;4128790;28;20647;-85
2022/07/10 09:34:05;;;;;;;5.03;2.07;;;;;;;22.38;59.60;98869.59;4114577;28;20653;-86
2022/07/10 09:36:10;;;;;;;3.17;2.07;;;;;;;22.54;58.83;98869.69;4105231;28;20669;-86
2022/07/10 09:38:15;;;;;;;3.60;2.08;;;;;;;22.39;58.50;98878.44;4123323;28;20759;-89
2022/07/10 09:40:19;;;;;;;3.20;2.40;;;;;;;22.03;58.63;98871.53;4126641;28;20264;-87
2022/07/10 09:42:31;;;;;;;2.90;2.10;;;;;;;21.92;60.23;98881.59;4115237;28;20620;-87
2022/07/10 09:44:34;;;;;;;4.10;2.40;;;;;;;21.75;59.38;98877.16;4129929;28;20614;-87
2022/07/10 09:46:38;;;;;;;2.87;2.00;;;;;;;21.63;60.04;98875.72;4127331;28;20629;-85
2022/07/10 09:48:42;;;;;;;3.30;2.17;;;;;;;21.41;62.06;98886.81;4112305;28;20633;-86
2022/07/10 09:50:45;;;;;;;4.43;2.00;;;;;;;21.45;60.21;98890.84;4111866;28;20700;-85
2022/07/10 09:52:50;;;;;;;5.53;2.70;;;;;;;21.53;60.84;98880.31;4110386;28;20643;-85
2022/07/10 09:54:55;;;;;;;3.00;2.20;;;;;;;21.76;62.92;98877.00;4130855;28;20666;-85